Time;durP1;ratioP1;P1;durP2;ratioP2;P2;SDS_P1;SDS_P2;PMS_P1;PMS_P2;Temp;Humidity;BMP_temperature;BMP_pressure;BME280_temperature;BME280_humidity;BME280_pressure;Samples;Min_cycle;Max_cycle;Signal;HPM_P1;HPM_P2
2022/01/05 00:02:12;;;;;;;1.30;0.60;;;11.40;47.40;;;;;;5094040;28;20168;-49
2022/01/05 00:04:39;;;;;;;1.20;0.40;;;11.30;47.30;;;;;;5093799;28;20160;-48
2022/01/05 00:07:07;;;;;;;1.65;0.70;;;11.30;47.50;;;;;;5093521;28;20482;-49
2022/01/05 00:09:35;;;;;;;1.40;0.90;;;11.20;47.60;;;;;;5094561;28;20171;-49
2022/01/05 00:12:02;;;;;;;1.63;0.63;;;11.20;47.60;;;;;;5093489;28;20196;-49
2022/01/05 00:14:30;;;;;;;1.20;0.52;;;11.30;47.50;;;;;;5095851;28;20251;-48
2022/01/05 00:16:57;;;;;;;1.30;0.80;;;11.30;47.50;;;;;;5098247;28;20168;-49
2022/01/05 00:19:24;;;;;;;1.92;0.80;;;11.30;47.60;;;;;;5097925;28;20166;-49
2022/01/05 00:21:52;;;;;;;1.80;1.08;;;11.20;47.30;;;;;;5098176;28;20168;-49
2022/01/05 00:24:19;;;;;;;2.35;0.80;;;11.20;47.60;;;;;;5098262;28;20171;-49
2022/01/05 00:26:47;;;;;;;1.83;0.93;;;11.30;47.80;;;;;;5097928;28;20171;-49
2022/01/05 00:29:14;;;;;;;1.65;0.75;;;11.20;47.50;;;;;;5097045;28;20179;-49
2022/01/05 00:31:41;;;;;;;1.10;0.60;;;11.20;47.50;;;;;;5097129;28;20188;-49
2022/01/05 00:34:08;;;;;;;1.60;0.55;;;11.20;47.40;;;;;;5096922;28;20493;-49
2022/01/05 00:36:36;;;;;;;2.75;0.80;;;11.20;47.60;;;;;;5097876;28;20188;-49
2022/01/05 00:39:03;;;;;;;1.10;0.40;;;11.20;48.30;;;;;;5097699;28;20236;-49
2022/01/05 00:41:31;;;;;;;1.73;0.88;;;11.20;47.60;;;;;;5096966;28;20179;-49
2022/01/05 00:43:58;;;;;;;2.35;0.40;;;11.20;47.60;;;;;;5097521;28;20254;-49
2022/01/05 00:46:26;;;;;;;1.45;0.40;;;11.10;47.60;;;;;;5097473;28;20215;-49
2022/01/05 00:48:53;;;;;;;1.20;0.40;;;11.10;48.00;;;;;;5097598;28;20168;-49
2022/01/05 00:51:20;;;;;;;1.40;0.47;;;11.00;47.90;;;;;;5097242;28;20195;-48
2022/01/05 00:53:47;;;;;;;1.35;0.40;;;11.10;48.00;;;;;;5097443;28;20490;-49
2022/01/05 00:56:15;;;;;;;1.65;0.90;;;11.20;47.90;;;;;;5096552;28;20183;-48
2022/01/05 00:58:42;;;;;;;1.00;0.30;;;11.20;47.80;;;;;;5062952;28;20183;-49
2022/01/05 01:01:10;;;;;;;1.13;0.47;;;11.20;47.80;;;;;;5096365;28;20163;-48
2022/01/05 01:03:39;;;;;;;1.30;0.60;;;11.20;47.90;;;;;;5097155;28;20258;-49
2022/01/05 01:06:07;;;;;;;1.00;0.30;;;11.20;48.00;;;;;;5097091;28;20497;-49
2022/01/05 01:08:35;;;;;;;1.33;0.65;;;11.30;48.00;;;;;;5097218;28;20179;-48
2022/01/05 01:11:02;;;;;;;1.15;0.50;;;11.30;48.10;;;;;;5096940;28;20183;-49
2022/01/05 01:13:29;;;;;;;0.95;0.30;;;11.30;48.00;;;;;;5096974;28;20194;-49
2022/01/05 01:15:56;;;;;;;2.30;0.68;;;11.30;48.20;;;;;;5096846;28;20160;-48
2022/01/05 01:18:24;;;;;;;1.10;0.40;;;11.30;48.30;;;;;;5096224;28;20168;-49
2022/01/05 01:20:51;;;;;;;1.10;0.30;;;11.30;48.30;;;;;;5097026;28;20167;-49
2022/01/05 01:23:22;;;;;;;1.00;0.30;;;11.20;48.00;;;;;;5095788;28;20172;-49
2022/01/05 01:25:51;;;;;;;3.25;0.90;;;11.10;48.10;;;;;;5095259;28;20183;-49
2022/01/05 01:28:19;;;;;;;1.10;0.50;;;11.10;48.70;;;;;;5096067;28;20156;-49
2022/01/05 01:30:46;;;;;;;1.00;0.40;;;10.90;48.70;;;;;;5095617;28;20152;-49
2022/01/05 01:33:14;;;;;;;1.20;0.55;;;11.00;48.70;;;;;;5096577;28;20157;-49
2022/01/05 01:35:42;;;;;;;1.58;0.63;;;11.00;48.90;;;;;;5095655;28;20152;-48
2022/01/05 01:38:09;;;;;;;1.10;0.40;;;11.00;48.70;;;;;;5096457;28;20196;-49
2022/01/05 01:40:36;;;;;;;1.10;0.40;;;11.00;48.60;;;;;;5096396;28;20164;-49
2022/01/05 01:43:04;;;;;;;1.00;0.30;;;11.00;48.60;;;;;;5095701;28;20164;-48
2022/01/05 01:45:34;;;;;;;1.10;0.40;;;11.00;48.50;;;;;;5096079;28;20667;-49
2022/01/05 01:48:01;;;;;;;1.17;0.30;;;11.00;48.40;;;;;;5096371;28;20168;-49
2022/01/05 01:50:28;;;;;;;1.00;0.30;;;11.00;48.50;;;;;;5095479;28;20175;-49
2022/01/05 01:52:56;;;;;;;1.10;0.40;;;11.10;48.60;;;;;;5096116;28;20570;-48
2022/01/05 01:55:23;;;;;;;1.10;0.55;;;11.10;48.70;;;;;;5095549;28;20249;-49
2022/01/05 01:57:51;;;;;;;1.95;0.65;;;11.10;48.60;;;;;;5095391;28;20172;-49
2022/01/05 02:00:18;;;;;;;1.00;0.30;;;11.20;48.60;;;;;;5096344;28;20180;-49
2022/01/05 02:02:46;;;;;;;1.23;0.30;;;11.10;48.40;;;;;;5096103;28;20666;-49
2022/01/05 02:05:14;;;;;;;1.10;0.30;;;11.20;48.20;;;;;;5095204;28;20171;-48
2022/01/05 02:07:41;;;;;;;1.08;0.52;;;11.20;48.90;;;;;;5096057;28;20163;-49
2022/01/05 02:10:10;;;;;;;1.10;0.30;;;11.20;48.10;;;;;;5094991;28;20240;-49
2022/01/05 02:12:38;;;;;;;1.35;0.57;;;11.20;48.00;;;;;;5094859;28;20192;-49
2022/01/05 02:15:07;;;;;;;1.00;0.40;;;11.20;48.20;;;;;;5095813;28;20167;-49
2022/01/05 02:17:48;;;;;;;1.25;0.47;;;11.20;48.10;;;;;;5095857;28;20160;-49
2022/01/05 02:20:18;;;;;;;1.83;0.50;;;11.20;48.10;;;;;;5094688;28;20176;-50
2022/01/05 02:22:46;;;;;;;1.15;0.30;;;11.20;48.10;;;;;;5095306;28;20349;-49
2022/01/05 02:25:14;;;;;;;1.20;0.65;;;11.20;48.10;;;;;;5094734;28;20235;-48
2022/01/05 02:27:44;;;;;;;1.10;0.32;;;11.20;48.10;;;;;;5094690;28;20168;-48
2022/01/05 02:30:14;;;;;;;1.00;0.38;;;11.10;48.00;;;;;;5094911;28;20505;-49
2022/01/05 02:32:41;;;;;;;1.10;0.45;;;11.10;48.10;;;;;;5078271;28;20195;-49
2022/01/05 02:35:10;;;;;;;1.08;0.32;;;11.10;48.20;;;;;;5095629;28;20163;-49
2022/01/05 02:37:45;;;;;;;1.20;0.60;;;11.10;48.30;;;;;;5076806;28;20180;-49
2022/01/05 02:40:15;;;;;;;1.88;0.50;;;11.20;48.20;;;;;;5094716;28;20151;-49
2022/01/05 02:42:43;;;;;;;1.23;0.57;;;11.10;48.40;;;;;;5078040;28;20241;-48
2022/01/05 02:45:12;;;;;;;2.10;0.70;;;11.10;48.40;;;;;;5094931;28;20219;-50
2022/01/05 02:47:40;;;;;;;1.30;0.45;;;11.20;48.30;;;;;;5094636;28;20221;-49
2022/01/05 02:50:10;;;;;;;1.13;0.63;;;11.20;48.30;;;;;;5094284;28;20175;-48
2022/01/05 02:52:38;;;;;;;1.20;0.60;;;11.20;48.40;;;;;;5094293;28;20195;-49
2022/01/05 02:55:07;;;;;;;3.10;0.90;;;11.20;48.40;;;;;;5094355;28;20532;-48
2022/01/05 02:57:35;;;;;;;2.38;0.90;;;11.20;48.40;;;;;;5095216;28;20160;-49
2022/01/05 03:00:06;;;;;;;1.20;0.40;;;11.20;48.50;;;;;;5094181;28;20160;-49
2022/01/05 03:02:34;;;;;;;1.00;0.20;;;11.20;48.40;;;;;;5077753;28;20160;-49
2022/01/05 03:05:03;;;;;;;1.10;0.55;;;11.10;48.50;;;;;;5095055;28;20231;-49
2022/01/05 03:07:33;;;;;;;1.20;0.70;;;11.10;48.40;;;;;;5077613;28;20636;-48
2022/01/05 03:10:01;;;;;;;1.20;0.50;;;11.10;48.50;;;;;;5093993;28;20600;-49
2022/01/05 03:12:28;;;;;;;1.00;0.30;;;11.00;48.80;;;;;;5095116;28;20211;-50
2022/01/05 03:14:55;;;;;;;1.38;0.70;;;11.00;48.90;;;;;;5094268;28;20167;-49
2022/01/05 03:17:23;;;;;;;1.10;0.60;;;11.00;48.70;;;;;;5094798;28;20474;-49
2022/01/05 03:19:49;;;;;;;1.10;0.50;;;11.00;48.70;;;;;;5094847;28;20167;-50
2022/01/05 03:22:17;;;;;;;1.00;0.20;;;11.00;48.80;;;;;;5094954;28;20190;-49
2022/01/05 03:24:45;;;;;;;1.10;0.50;;;11.00;48.90;;;;;;5094997;28;20160;-49
2022/01/05 03:27:12;;;;;;;1.10;0.38;;;11.00;48.70;;;;;;5095103;28;20221;-49
2022/01/05 03:29:39;;;;;;;2.00;0.43;;;10.90;49.00;;;;;;5093941;28;20186;-49
2022/01/05 03:32:07;;;;;;;1.67;0.75;;;10.90;48.90;;;;;;5093744;28;20245;-49
2022/01/05 03:34:36;;;;;;;1.08;0.40;;;10.90;48.90;;;;;;5094735;28;20617;-48
2022/01/05 03:37:04;;;;;;;1.23;0.45;;;10.80;49.10;;;;;;5094798;28;20175;-49
2022/01/05 03:39:31;;;;;;;1.40;0.50;;;10.80;48.60;;;;;;5093841;28;20664;-48
2022/01/05 03:41:59;;;;;;;1.35;0.50;;;10.70;48.90;;;;;;5094300;28;20172;-49
2022/01/05 03:44:27;;;;;;;1.10;0.60;;;10.70;48.90;;;;;;5094251;28;20176;-50
2022/01/05 03:46:55;;;;;;;1.10;0.50;;;10.80;48.80;;;;;;5093780;28;20172;-48
2022/01/05 03:49:23;;;;;;;1.00;0.40;;;10.90;48.90;;;;;;5096074;28;20680;-48
2022/01/05 03:51:51;;;;;;;1.00;0.30;;;10.90;48.80;;;;;;5098603;28;20238;-49
2022/01/05 03:54:18;;;;;;;1.00;0.30;;;10.90;48.60;;;;;;5098094;28;20543;-51
2022/01/05 03:56:46;;;;;;;1.00;0.30;;;10.90;48.00;;;;;;5097618;28;20156;-49
2022/01/05 03:59:14;;;;;;;1.20;0.50;;;10.90;47.80;;;;;;5098599;28;20164;-49
2022/01/05 04:01:41;;;;;;;1.08;0.40;;;10.80;48.00;;;;;;5098326;28;20567;-49
2022/01/05 04:04:08;;;;;;;1.10;0.30;;;10.70;48.00;;;;;;5097513;28;20247;-48
2022/01/05 04:06:36;;;;;;;1.00;0.30;;;10.70;48.50;;;;;;5097603;28;20160;-49
2022/01/05 04:09:03;;;;;;;1.10;0.40;;;10.70;48.30;;;;;;5098176;28;20171;-49
2022/01/05 04:11:30;;;;;;;1.20;0.45;;;10.70;48.30;;;;;;5097196;28;20180;-49
2022/01/05 04:13:57;;;;;;;2.05;1.80;;;10.70;47.80;;;;;;5098153;28;20168;-49
2022/01/05 04:16:25;;;;;;;1.00;0.30;;;10.80;48.00;;;;;;5097231;28;20238;-49
2022/01/05 04:18:52;;;;;;;1.10;0.40;;;10.80;48.20;;;;;;5097277;28;20228;-49
2022/01/05 04:21:19;;;;;;;1.00;0.32;;;10.80;48.00;;;;;;5096987;28;20175;-49
2022/01/05 04:23:46;;;;;;;2.20;0.50;;;10.70;48.10;;;;;;5097320;28;20168;-49
2022/01/05 04:26:14;;;;;;;1.00;0.32;;;10.70;48.20;;;;;;5098066;28;20454;-49
2022/01/05 04:28:41;;;;;;;1.00;0.32;;;10.80;48.20;;;;;;5098503;28;20174;-49
2022/01/05 04:31:09;;;;;;;2.10;0.60;;;10.70;47.60;;;;;;5097745;28;20271;-49
2022/01/05 04:33:36;;;;;;;1.30;0.35;;;10.80;48.00;;;;;;5097773;28;20233;-49
2022/01/05 04:36:04;;;;;;;1.65;0.40;;;10.80;47.10;;;;;;5097659;28;20589;-50
2022/01/05 04:38:31;;;;;;;1.42;0.60;;;10.80;47.40;;;;;;5097667;28;20252;-49
2022/01/05 04:40:58;;;;;;;1.00;0.30;;;10.80;47.00;;;;;;5096933;28;20217;-49
2022/01/05 04:43:26;;;;;;;1.00;0.30;;;10.90;47.10;;;;;;5097511;28;20159;-49
2022/01/05 04:45:53;;;;;;;1.00;0.30;;;10.90;47.00;;;;;;5096245;28;20231;-49
2022/01/05 04:48:21;;;;;;;1.00;0.30;;;10.90;46.50;;;;;;5097589;28;20171;-49
2022/01/05 04:50:48;;;;;;;1.00;0.30;;;10.90;47.00;;;;;;5097537;28;20167;-49
2022/01/05 04:53:15;;;;;;;1.10;0.35;;;10.90;46.70;;;;;;5097825;28;20160;-48
2022/01/05 04:55:43;;;;;;;1.10;0.47;;;10.80;46.10;;;;;;5096412;28;20164;-48
2022/01/05 04:58:11;;;;;;;1.00;0.30;;;10.70;46.70;;;;;;5096399;28;20653;-48
2022/01/05 05:00:39;;;;;;;1.00;0.40;;;10.70;46.70;;;;;;5095399;28;20613;-49
2022/01/05 05:03:06;;;;;;;1.00;0.30;;;10.70;47.10;;;;;;5096729;28;20187;-49
2022/01/05 05:05:35;;;;;;;1.00;0.22;;;10.70;46.90;;;;;;5097281;28;20159;-49
2022/01/05 05:08:03;;;;;;;1.00;0.20;;;10.70;46.70;;;;;;5097107;28;20182;-49
2022/01/05 05:10:30;;;;;;;1.05;0.40;;;10.70;46.30;;;;;;5097333;28;20220;-49
2022/01/05 05:12:58;;;;;;;1.13;0.68;;;10.70;46.90;;;;;;5096225;28;20359;-49
2022/01/05 05:15:26;;;;;;;1.00;0.40;;;10.70;46.10;;;;;;5096842;28;20179;-49
2022/01/05 05:17:53;;;;;;;1.00;0.40;;;10.60;46.50;;;;;;5096116;28;20256;-49
2022/01/05 05:20:20;;;;;;;1.02;0.40;;;10.60;46.60;;;;;;5096851;28;20168;-49
2022/01/05 05:22:48;;;;;;;1.65;0.75;;;10.60;47.30;;;;;;5096334;28;20168;-49
2022/01/05 05:25:15;;;;;;;1.10;0.50;;;10.40;48.00;;;;;;5096719;28;20168;-48
2022/01/05 05:27:42;;;;;;;1.30;0.55;;;10.50;48.50;;;;;;5096625;28;20245;-49
2022/01/05 05:30:10;;;;;;;1.10;0.40;;;10.50;48.30;;;;;;5096715;28;20168;-49
2022/01/05 05:32:37;;;;;;;1.20;0.60;;;10.50;48.20;;;;;;5096585;28;20196;-50
2022/01/05 05:35:05;;;;;;;1.20;0.60;;;10.40;47.80;;;;;;5096627;28;20523;-50
2022/01/05 05:37:33;;;;;;;1.20;0.40;;;10.30;47.50;;;;;;5097092;28;20183;-48
2022/01/05 05:40:01;;;;;;;1.10;0.70;;;10.10;47.20;;;;;;5095545;28;20190;-49
2022/01/05 05:42:28;;;;;;;1.10;0.40;;;10.00;47.30;;;;;;5096546;28;20168;-48
2022/01/05 05:44:55;;;;;;;1.10;0.50;;;9.90;47.60;;;;;;5095423;28;20231;-48
2022/01/05 05:47:22;;;;;;;1.10;0.50;;;9.80;47.20;;;;;;5095575;28;20596;-49
2022/01/05 05:49:49;;;;;;;1.23;0.77;;;9.60;47.20;;;;;;5095442;28;20168;-48
2022/01/05 05:52:17;;;;;;;2.50;0.75;;;9.40;47.00;;;;;;5095973;28;20200;-49
2022/01/05 05:54:45;;;;;;;1.08;0.40;;;9.30;47.60;;;;;;5078408;28;20167;-48
2022/01/05 05:57:12;;;;;;;1.15;0.60;;;9.30;47.70;;;;;;5096536;28;20251;-48
2022/01/05 05:59:40;;;;;;;1.30;0.50;;;9.30;48.10;;;;;;5096415;28;20187;-49
2022/01/05 06:02:07;;;;;;;1.52;0.63;;;9.30;47.90;;;;;;5096138;28;20168;-49
2022/01/05 06:04:35;;;;;;;1.20;0.73;;;9.20;48.20;;;;;;5096120;28;20239;-48
2022/01/05 06:07:03;;;;;;;1.23;0.57;;;9.20;47.70;;;;;;5095015;28;20171;-49
2022/01/05 06:09:30;;;;;;;1.75;0.90;;;9.20;47.50;;;;;;5096052;28;20171;-48
2022/01/05 06:11:57;;;;;;;1.10;0.38;;;9.10;47.60;;;;;;5095582;28;20281;-49
2022/01/05 06:14:25;;;;;;;1.08;0.40;;;9.10;47.60;;;;;;5095055;28;20163;-48
2022/01/05 06:16:52;;;;;;;1.48;0.80;;;9.10;47.30;;;;;;5095698;28;20497;-49
2022/01/05 06:19:20;;;;;;;1.10;0.60;;;9.00;47.40;;;;;;5095814;28;20470;-49
2022/01/05 06:21:50;;;;;;;1.20;0.50;;;9.00;47.60;;;;;;5095802;28;20243;-48
2022/01/05 06:24:18;;;;;;;1.20;0.80;;;9.00;47.70;;;;;;5094592;28;20171;-48
2022/01/05 06:26:46;;;;;;;1.00;0.40;;;9.00;47.70;;;;;;5095140;28;20519;-48
2022/01/05 06:29:14;;;;;;;1.20;0.60;;;9.00;47.60;;;;;;5094613;28;20164;-49
2022/01/05 06:31:41;;;;;;;1.00;0.40;;;9.00;47.70;;;;;;5095320;28;20219;-49
2022/01/05 06:34:09;;;;;;;1.20;0.70;;;9.00;47.70;;;;;;5095701;28;20192;-48
2022/01/05 06:36:36;;;;;;;1.10;0.50;;;8.90;47.60;;;;;;5095413;28;20168;-49
2022/01/05 06:39:04;;;;;;;1.10;0.40;;;8.90;47.60;;;;;;5095423;28;20203;-49
2022/01/05 06:41:32;;;;;;;1.45;0.90;;;8.90;47.60;;;;;;5095430;28;20175;-49
2022/01/05 06:43:59;;;;;;;1.10;0.30;;;8.90;47.50;;;;;;5095303;28;20549;-48
2022/01/05 06:46:26;;;;;;;1.20;0.55;;;8.80;47.60;;;;;;5094088;28;20218;-48
2022/01/05 06:48:54;;;;;;;1.25;0.55;;;8.80;47.40;;;;;;5095486;28;20159;-49
2022/01/05 06:51:21;;;;;;;1.00;0.45;;;8.80;47.40;;;;;;5095387;28;20198;-48
2022/01/05 06:53:49;;;;;;;1.10;0.63;;;8.70;47.30;;;;;;5095334;28;20620;-48
2022/01/05 06:56:16;;;;;;;2.25;0.75;;;8.60;47.40;;;;;;5095180;28;20496;-49
2022/01/05 06:58:44;;;;;;;1.10;0.50;;;8.60;47.70;;;;;;5094292;28;20556;-48
2022/01/05 07:01:12;;;;;;;1.33;0.55;;;8.60;47.60;;;;;;5094955;28;20245;-48
2022/01/05 07:03:39;;;;;;;1.85;0.70;;;8.60;47.50;;;;;;5095001;28;20612;-48
2022/01/05 07:06:06;;;;;;;1.25;0.70;;;8.50;47.80;;;;;;5077427;28;20208;-48
2022/01/05 07:08:33;;;;;;;1.10;0.60;;;8.60;47.40;;;;;;5094998;28;20179;-50
2022/01/05 07:11:01;;;;;;;1.10;0.43;;;8.50;47.50;;;;;;5094976;28;20205;-49
2022/01/05 07:13:28;;;;;;;1.20;0.52;;;8.50;47.60;;;;;;5094009;28;20231;-48
2022/01/05 07:15:55;;;;;;;1.23;0.80;;;8.40;47.60;;;;;;5095043;28;20167;-48
2022/01/05 07:18:23;;;;;;;1.73;1.20;;;8.40;47.50;;;;;;5093990;28;20167;-48
2022/01/05 07:20:50;;;;;;;2.38;0.85;;;8.40;47.50;;;;;;5093967;28;20161;-48
2022/01/05 07:23:18;;;;;;;1.20;0.63;;;8.30;47.80;;;;;;5095526;28;20167;-48
2022/01/05 07:25:45;;;;;;;1.85;0.80;;;8.30;48.00;;;;;;5099192;28;20163;-48
2022/01/05 07:28:12;;;;;;;1.10;0.60;;;8.30;48.00;;;;;;5099125;28;20550;-48
2022/01/05 07:30:40;;;;;;;5.35;0.90;;;8.30;48.20;;;;;;5081090;28;20190;-48
2022/01/05 07:33:07;;;;;;;1.58;0.80;;;8.30;48.10;;;;;;5099008;28;20286;-50
2022/01/05 07:35:35;;;;;;;1.20;0.50;;;8.20;48.10;;;;;;5097994;28;20239;-48
2022/01/05 07:38:02;;;;;;;1.48;0.70;;;8.10;47.90;;;;;;5098791;28;20186;-50
2022/01/05 07:40:29;;;;;;;1.70;1.00;;;8.10;48.30;;;;;;5098032;28;20230;-48
2022/01/05 07:42:57;;;;;;;2.95;0.55;;;8.00;48.30;;;;;;5098811;28;20163;-48
2022/01/05 07:45:25;;;;;;;1.27;0.60;;;7.90;48.50;;;;;;5098352;28;20216;-48
2022/01/05 07:47:52;;;;;;;5.60;0.82;;;7.80;48.50;;;;;;5098699;28;20177;-49
2022/01/05 07:50:20;;;;;;;1.55;0.95;;;7.80;48.80;;;;;;5098653;28;20181;-49
2022/01/05 07:52:47;;;;;;;1.50;0.52;;;7.80;48.60;;;;;;5098442;28;20202;-48
2022/01/05 07:55:15;;;;;;;2.33;0.88;;;7.80;48.90;;;;;;5098500;28;20161;-49
2022/01/05 07:57:42;;;;;;;1.00;0.40;;;7.80;48.80;;;;;;5098619;28;20162;-48
2022/01/05 08:00:10;;;;;;;1.50;0.60;;;7.80;48.80;;;;;;5098674;28;20185;-48
2022/01/05 08:02:38;;;;;;;1.10;0.60;;;7.80;48.90;;;;;;5098448;28;20183;-48
2022/01/05 08:05:07;;;;;;;1.83;0.60;;;7.80;49.10;;;;;;5097439;28;20160;-48
2022/01/05 08:07:34;;;;;;;1.20;0.77;;;7.70;49.30;;;;;;5098464;28;20172;-48
2022/01/05 08:10:01;;;;;;;2.28;1.35;;;7.60;49.60;;;;;;5097314;28;20192;-48
2022/01/05 08:12:29;;;;;;;1.40;0.60;;;7.60;49.80;;;;;;5097645;28;20190;-48
2022/01/05 08:14:56;;;;;;;1.30;0.40;;;7.50;49.80;;;;;;5098183;28;20177;-49
2022/01/05 08:17:23;;;;;;;1.15;0.63;;;7.50;49.70;;;;;;5080828;28;20168;-49
2022/01/05 08:19:50;;;;;;;2.03;1.00;;;7.50;49.90;;;;;;5098167;28;20156;-48
2022/01/05 08:22:18;;;;;;;1.30;0.90;;;7.50;49.90;;;;;;5097292;28;20165;-49
2022/01/05 08:24:45;;;;;;;1.30;0.50;;;7.50;49.90;;;;;;5096971;28;20247;-49
2022/01/05 08:27:12;;;;;;;2.92;1.85;;;7.50;49.90;;;;;;5097813;28;20168;-49
2022/01/05 08:29:40;;;;;;;2.20;0.70;;;7.40;50.00;;;;;;5097816;28;20168;-48
2022/01/05 08:32:08;;;;;;;1.15;0.82;;;7.40;50.00;;;;;;5097825;28;20191;-50
2022/01/05 08:34:35;;;;;;;2.95;0.77;;;7.40;50.00;;;;;;5080286;28;20589;-49
2022/01/05 08:37:02;;;;;;;1.70;1.20;;;7.40;50.60;;;;;;5080139;28;20489;-49
2022/01/05 08:39:30;;;;;;;1.55;0.70;;;7.40;49.80;;;;;;5098040;28;20190;-48
2022/01/05 08:41:57;;;;;;;1.20;0.60;;;7.50;49.60;;;;;;5096608;28;20182;-49
2022/01/05 08:44:24;;;;;;;1.30;0.95;;;7.50;49.50;;;;;;5097767;28;20628;-48
2022/01/05 08:46:52;;;;;;;1.10;0.45;;;7.40;49.30;;;;;;5079822;28;20223;-50
2022/01/05 08:49:22;;;;;;;2.40;0.80;;;7.40;49.10;;;;;;5097948;28;20192;-49
2022/01/05 08:51:49;;;;;;;1.20;0.60;;;7.40;49.30;;;;;;5079808;28;20196;-50
2022/01/05 08:54:17;;;;;;;1.20;0.77;;;7.40;49.40;;;;;;5096447;28;20161;-48
2022/01/05 08:56:44;;;;;;;1.20;0.50;;;7.40;49.40;;;;;;5097221;28;20188;-48
2022/01/05 08:59:11;;;;;;;1.50;0.70;;;7.30;49.40;;;;;;5097257;28;20225;-48
2022/01/05 09:01:42;;;;;;;1.30;0.50;;;7.30;50.00;;;;;;5097341;28;20168;-50
2022/01/05 09:04:10;;;;;;;1.35;0.82;;;7.30;49.40;;;;;;5080259;28;20199;-49
2022/01/05 09:06:38;;;;;;;2.10;1.35;;;7.30;49.10;;;;;;5097329;28;20190;-49
2022/01/05 09:09:05;;;;;;;1.20;0.50;;;7.20;49.30;;;;;;5096616;28;20601;-49
2022/01/05 09:11:32;;;;;;;1.00;0.30;;;7.20;49.10;;;;;;5097160;28;20623;-48
2022/01/05 09:13:59;;;;;;;1.00;0.32;;;7.20;49.50;;;;;;5096956;28;20160;-48
2022/01/05 09:16:27;;;;;;;1.10;0.50;;;7.10;49.50;;;;;;5096066;28;20159;-49
2022/01/05 09:19:00;;;;;;;1.10;0.50;;;7.10;49.50;;;;;;5096875;28;20675;-49
2022/01/05 09:21:28;;;;;;;1.20;0.57;;;7.20;49.70;;;;;;5096742;28;20518;-48
2022/01/05 09:23:55;;;;;;;1.10;0.52;;;7.30;49.60;;;;;;5096795;28;20174;-49
2022/01/05 09:26:22;;;;;;;1.90;0.85;;;7.40;49.70;;;;;;5096816;28;20171;-49
2022/01/05 09:28:50;;;;;;;2.55;1.05;;;7.50;49.20;;;;;;5096803;28;20175;-49
2022/01/05 09:31:17;;;;;;;1.00;0.40;;;7.40;49.20;;;;;;5096517;28;20192;-49
2022/01/05 09:33:45;;;;;;;1.20;0.50;;;7.50;49.10;;;;;;5096452;28;20191;-48
2022/01/05 09:36:17;;;;;;;1.00;0.40;;;7.60;48.20;;;;;;5095584;28;20160;-49
2022/01/05 09:44:13;;;;;;;1.75;0.95;;;7.50;48.40;;;;;;5096094;28;20191;-49
2022/01/05 09:47:11;;;;;;;1.50;0.30;;;7.40;47.70;;;;;;5094659;28;20219;-49
2022/01/05 09:50:04;;;;;;;1.08;0.60;;;7.30;48.40;;;;;;5096714;28;20168;-48
2022/01/05 09:52:40;;;;;;;1.33;0.63;;;7.30;48.40;;;;;;5087756;28;20202;-49
2022/01/05 09:55:09;;;;;;;1.30;0.90;;;7.30;48.70;;;;;;5095248;28;20160;-48
2022/01/05 09:57:40;;;;;;;1.33;0.82;;;7.40;48.50;;;;;;5095274;28;20165;-49
2022/01/05 10:00:11;;;;;;;1.75;0.85;;;7.40;47.90;;;;;;5096145;28;20180;-49
2022/01/05 10:02:39;;;;;;;1.85;1.08;;;7.40;48.60;;;;;;5095395;28;20168;-48
2022/01/05 10:05:13;;;;;;;1.10;0.40;;;7.40;48.20;;;;;;5095276;28;20230;-50
2022/01/05 10:07:42;;;;;;;1.42;0.90;;;7.30;48.20;;;;;;5095270;28;20187;-49
2022/01/05 10:10:10;;;;;;;1.10;0.50;;;7.40;48.10;;;;;;5078041;28;20178;-48
2022/01/05 10:12:37;;;;;;;1.20;0.80;;;7.40;48.30;;;;;;5095161;28;20196;-48
2022/01/05 10:15:05;;;;;;;1.10;0.60;;;7.40;48.00;;;;;;5096001;28;20168;-48
2022/01/05 10:17:36;;;;;;;1.10;0.40;;;7.30;48.20;;;;;;5094979;28;20253;-48
2022/01/05 10:20:06;;;;;;;1.42;1.02;;;7.40;48.20;;;;;;5094751;28;20237;-49
2022/01/05 10:22:38;;;;;;;1.00;0.40;;;7.30;47.80;;;;;;5094975;28;20156;-48
2022/01/05 10:25:15;;;;;;;1.30;0.82;;;7.20;48.20;;;;;;5078802;28;20255;-49
2022/01/05 10:27:45;;;;;;;1.30;0.50;;;7.30;48.00;;;;;;5095621;28;20156;-49
2022/01/05 10:30:14;;;;;;;2.50;1.10;;;7.20;47.90;;;;;;5094479;28;20194;-49
2022/01/05 10:32:46;;;;;;;1.00;0.40;;;7.30;48.40;;;;;;5095691;28;20239;-48
2022/01/05 10:35:16;;;;;;;1.00;0.30;;;7.20;48.20;;;;;;5078196;28;20188;-48
2022/01/05 10:37:58;;;;;;;1.10;0.50;;;7.20;47.60;;;;;;5095381;28;20600;-48
2022/01/05 10:40:26;;;;;;;2.15;0.70;;;7.30;47.80;;;;;;5094730;28;20160;-49
2022/01/05 10:42:56;;;;;;;1.23;0.50;;;7.30;46.60;;;;;;5094345;28;20293;-48
2022/01/05 10:45:38;;;;;;;1.10;0.47;;;7.40;47.00;;;;;;5094189;28;20216;-48
2022/01/05 10:48:07;;;;;;;1.75;1.27;;;7.80;47.00;;;;;;5094364;28;20264;-49
2022/01/05 10:50:36;;;;;;;1.83;1.17;;;8.40;44.50;;;;;;5095212;28;20172;-48
2022/01/05 10:53:04;;;;;;;1.38;0.95;;;8.80;43.40;;;;;;5094188;28;20205;-49
2022/01/05 10:55:32;;;;;;;1.40;0.85;;;10.00;40.50;;;;;;5094615;28;20193;-49
2022/01/05 10:58:11;;;;;;;1.40;0.90;;;11.00;39.30;;;;;;5094281;28;20156;-48
2022/01/05 11:00:42;;;;;;;2.08;1.33;;;11.40;37.20;;;;;;5095389;28;20251;-49
2022/01/05 11:03:28;;;;;;;3.45;1.08;;;11.70;36.70;;;;;;5095425;28;20156;-49
2022/01/05 11:06:16;;;;;;;3.28;0.68;;;11.90;35.00;;;;;;5094274;28;20176;-49
2022/01/05 11:08:55;;;;;;;1.27;0.63;;;11.60;35.90;;;;;;5095051;28;20171;-49
2022/01/05 11:11:37;;;;;;;1.17;0.60;;;11.30;35.40;;;;;;5094787;28;20685;-48
2022/01/05 11:14:18;;;;;;;2.30;0.82;;;11.20;37.20;;;;;;5094990;28;20246;-49
2022/01/05 11:16:54;;;;;;;1.55;0.80;;;11.30;37.20;;;;;;5095105;28;20156;-48
2022/01/05 11:19:30;;;;;;;1.30;0.70;;;11.20;37.20;;;;;;5094873;28;20431;-49
2022/01/05 11:22:05;;;;;;;1.20;0.70;;;11.10;36.20;;;;;;5094816;28;20166;-50
2022/01/05 11:24:47;;;;;;;1.90;0.98;;;10.90;37.40;;;;;;5093757;28;20297;-49
2022/01/05 11:27:20;;;;;;;1.30;0.65;;;10.60;36.00;;;;;;5095029;28;20485;-49
2022/01/05 11:29:48;;;;;;;1.00;0.30;;;10.30;36.20;;;;;;5094211;28;20168;-49
2022/01/05 11:32:20;;;;;;;1.85;0.75;;;10.00;36.70;;;;;;5093750;28;20179;-49
2022/01/05 11:34:53;;;;;;;2.78;1.05;;;9.90;36.70;;;;;;5093797;28;20242;-50
2022/01/05 11:37:21;;;;;;;3.35;0.63;;;9.90;37.50;;;;;;5094680;28;20185;-48
2022/01/05 11:39:55;;;;;;;3.45;0.57;;;10.10;36.20;;;;;;5093802;28;20172;-50
2022/01/05 11:42:33;;;;;;;1.30;0.60;;;10.50;35.90;;;;;;5093993;28;20158;-49
2022/01/05 11:45:02;;;;;;;2.28;0.70;;;11.10;34.90;;;;;;5077445;28;20543;-50
2022/01/05 11:47:32;;;;;;;3.00;0.80;;;11.60;35.60;;;;;;5094685;28;20176;-49
2022/01/05 11:50:14;;;;;;;1.58;0.80;;;11.60;34.30;;;;;;5094510;28;20179;-48
2022/01/05 11:53:09;;;;;;;1.30;0.57;;;11.20;33.20;;;;;;5094482;28;20215;-49
2022/01/05 11:56:04;;;;;;;2.50;0.85;;;10.80;34.50;;;;;;5094520;28;20148;-49
2022/01/05 11:58:33;;;;;;;1.63;0.55;;;10.60;34.00;;;;;;5093479;28;20198;-49
2022/01/05 12:01:20;;;;;;;1.30;0.57;;;10.30;33.20;;;;;;5093431;28;20262;-49
2022/01/05 12:03:53;;;;;;;1.15;0.40;;;10.00;34.90;;;;;;5094712;28;20247;-50
2022/01/05 12:06:21;;;;;;;1.55;0.80;;;9.70;35.00;;;;;;5094321;28;20493;-49
2022/01/05 12:08:51;;;;;;;1.58;0.77;;;9.50;35.50;;;;;;5094329;28;20251;-49
2022/01/05 12:11:39;;;;;;;1.83;0.90;;;9.20;35.30;;;;;;5097602;28;20597;-49
2022/01/05 12:14:27;;;;;;;1.63;0.80;;;9.10;36.10;;;;;;5098183;28;20209;-48
2022/01/05 12:17:07;;;;;;;1.85;0.70;;;8.90;35.80;;;;;;5083905;28;20176;-48
2022/01/05 12:19:57;;;;;;;2.08;0.50;;;8.80;35.70;;;;;;5097036;28;20168;-48
2022/01/05 12:22:32;;;;;;;1.10;0.40;;;8.80;35.40;;;;;;5097112;28;20167;-49
2022/01/05 12:25:06;;;;;;;2.42;0.55;;;9.10;36.50;;;;;;5098401;28;20168;-48
2022/01/05 12:27:49;;;;;;;6.28;2.13;;;9.60;35.50;;;;;;5098095;28;20170;-48
2022/01/05 12:30:16;;;;;;;2.65;1.13;;;10.30;35.00;;;;;;5097936;28;20164;-48
2022/01/05 12:32:46;;;;;;;1.95;0.55;;;11.20;32.30;;;;;;5097822;28;20192;-48
2022/01/05 12:35:20;;;;;;;1.45;0.80;;;11.80;31.30;;;;;;5097733;28;20255;-49
2022/01/05 12:37:59;;;;;;;1.30;0.88;;;12.00;30.70;;;;;;5097608;28;20153;-49
2022/01/05 12:40:36;;;;;;;1.50;0.93;;;12.10;31.00;;;;;;5096754;28;20195;-49
2022/01/05 12:43:17;;;;;;;1.10;0.60;;;11.70;30.60;;;;;;5096894;28;20165;-49
2022/01/05 12:46:05;;;;;;;1.20;0.60;;;11.50;30.60;;;;;;5096321;28;20234;-49
2022/01/05 12:48:32;;;;;;;1.40;1.05;;;12.10;29.90;;;;;;5096562;28;20156;-49
2022/01/05 12:51:23;;;;;;;2.95;1.77;;;12.30;29.70;;;;;;5097515;28;20218;-49
2022/01/05 12:54:10;;;;;;;1.20;0.73;;;12.60;30.10;;;;;;5097679;28;20182;-49
2022/01/05 12:56:43;;;;;;;1.20;0.60;;;13.10;28.00;;;;;;5097216;28;20152;-48
2022/01/05 12:59:35;;;;;;;1.42;0.70;;;13.30;26.90;;;;;;5096773;28;20289;-49
2022/01/05 13:02:21;;;;;;;7.97;1.23;;;13.80;26.20;;;;;;5096645;28;20168;-48
2022/01/05 13:04:49;;;;;;;1.75;0.98;;;14.30;25.10;;;;;;5096402;28;20172;-49
2022/01/05 13:07:17;;;;;;;1.20;0.63;;;14.70;24.40;;;;;;5096952;28;20270;-49
2022/01/05 13:09:47;;;;;;;2.25;0.90;;;14.50;23.70;;;;;;5096178;28;20175;-49